Flight Track Log - Related Links

Times and Time Zones

All times are in EDT time to prevent confusion due to time zone crossing. See the CHH7103 flight status page for this flight to view local times or setup timezone preferences in your user account.

Time Position Orientation Groundspeed Altitude Reporting Facility
EDT Latitude Longitude Course Direction KTS MPH feet Rate Location/Type
Sun 07:41:00 PM 40.1315 116.7053 61° Northeast  Level Estimated
Sun 07:42:00 PM 40.1827 116.8263 61° Northeast  Level Estimated
Sun 07:43:00 PM 40.2338 116.9474 61° Northeast  Level Estimated
Sun 07:44:00 PM 40.2848 117.0687 61° Northeast  Level Estimated
Sun 07:45:00 PM 40.3357 117.1902 61° Northeast  Level Estimated
Sun 07:46:00 PM 40.3864 117.3119 61° Northeast  Level Estimated
Sun 07:47:00 PM 40.4370 117.4337 61° Northeast  Level Estimated
Sun 07:48:00 PM 40.4875 117.5558 61° Northeast  Level Estimated
Sun 07:49:00 PM 40.5378 117.6780 62° Northeast  Level Estimated
Sun 07:50:00 PM 40.5918 117.8096 62° Northeast  Level Estimated
Sun 07:51:00 PM 40.6456 117.9415 62° Northeast  Level Estimated
Sun 07:52:00 PM 40.6993 118.0735 62° Northeast  Level Estimated
Sun 07:53:00 PM 40.7529 118.2058 62° Northeast  Level Estimated
Sun 07:54:00 PM 40.8063 118.3383 62° Northeast  Level Estimated
Sun 07:55:00 PM 40.8595 118.4710 62° Northeast  Level Estimated
Sun 07:56:00 PM 40.9126 118.6039 62° Northeast  Level Estimated
Sun 07:57:00 PM 40.9655 118.7370 62° Northeast  Level Estimated
Sun 07:58:00 PM 41.0183 118.8703 62° Northeast  Level Estimated
Sun 07:59:00 PM 41.0709 119.0039 62° Northeast  Level Estimated
Sun 08:00:00 PM 41.1234 119.1376 62° Northeast  Level Estimated
Sun 08:01:00 PM 41.1757 119.2716 63° Northeast  Level Estimated
Sun 08:02:00 PM 41.2279 119.4058 63° Northeast  Level Estimated
Sun 08:03:00 PM 41.2799 119.5402 63° Northeast  Level Estimated
Sun 08:04:00 PM 41.3317 119.6748 63° Northeast  Level Estimated
Sun 08:05:00 PM 41.3834 119.8096 63° Northeast  Level Estimated
Sun 08:06:00 PM 41.4350 119.9447 63° Northeast  Level Estimated
Sun 08:07:00 PM 41.4863 120.0799 63° Northeast  Level Estimated
Sun 08:08:00 PM 41.5375 120.2154 63° Northeast  Level Estimated
Sun 08:09:00 PM 41.5886 120.3511 63° Northeast  Level Estimated
Sun 08:10:00 PM 41.6395 120.4870 63° Northeast  Level Estimated
Sun 08:11:00 PM 41.6902 120.6231 63° Northeast  Level Estimated
Sun 08:12:00 PM 41.7408 120.7595 64° Northeast  Level Estimated
Sun 08:13:00 PM 41.7912 120.8960 64° Northeast  Level Estimated
Sun 08:14:00 PM 41.8415 121.0328 64° Northeast  Level Estimated
Sun 08:15:00 PM 41.8916 121.1697 64° Northeast  Level Estimated
Sun 08:16:00 PM 41.9415 121.3069 64° Northeast  Level Estimated
Sun 08:17:00 PM 41.9913 121.4443 64° Northeast  Level Estimated
Sun 08:18:00 PM 42.0409 121.5820 64° Northeast  Level Estimated
Sun 08:19:00 PM 42.0903 121.7198 64° Northeast  Level Estimated
Sun 08:20:00 PM 42.1396 121.8578 64° Northeast  Level Estimated
Sun 08:21:00 PM 42.1887 121.9961 64° Northeast  Level Estimated
Sun 08:22:00 PM 42.2376 122.1346 64° Northeast  Level Estimated
Sun 08:23:00 PM 42.2864 122.2733 65° Northeast  Level Estimated
Sun 08:24:00 PM 42.3350 122.4122 65° Northeast  Level Estimated
Sun 08:25:00 PM 42.3834 122.5513 65° Northeast  Level Estimated
Sun 08:26:00 PM 42.4317 122.6906 65° Northeast  Level Estimated
Sun 08:27:00 PM 42.4798 122.8302 65° Northeast  Level Estimated
Sun 08:28:00 PM 42.5277 122.9699 65° Northeast  Level Estimated
Sun 08:29:00 PM 42.5755 123.1099 65° Northeast  Level Estimated
Sun 08:30:00 PM 42.6231 123.2501 65° Northeast  Level Estimated
Sun 08:31:00 PM 42.6705 123.3905 65° Northeast  Level Estimated
Sun 08:32:00 PM 42.7177 123.5312 65° Northeast  Level Estimated
Sun 08:33:00 PM 42.7648 123.6720 65° Northeast  Level Estimated
Sun 08:34:00 PM 42.8117 123.8130 66° East  Level Estimated
Sun 08:35:00 PM 42.8584 123.9543 66° East  Level Estimated
Sun 08:36:00 PM 42.9050 124.0958 66° East  Level Estimated
Sun 08:37:00 PM 42.9514 124.2375 66° East  Level Estimated
Sun 08:38:00 PM 42.9976 124.3794 66° East  Level Estimated
Sun 08:39:00 PM 43.0436 124.5215 66° East  Level Estimated
Sun 08:40:00 PM 43.0894 124.6638 66° East  Level Estimated
Sun 08:41:00 PM 43.1351 124.8064 66° East  Level Estimated
Sun 08:42:00 PM 43.1806 124.9491 66° East  Level Estimated
Sun 08:43:00 PM 43.2259 125.0921 66° East  Level Estimated
Sun 08:44:00 PM 43.2711 125.2353 67° East  Level Estimated
Sun 08:45:00 PM 43.3160 125.3786 67° East  Level Estimated
Sun 08:46:00 PM 43.3608 125.5222 67° East  Level Estimated
Sun 08:47:00 PM 43.4054 125.6661 67° East  Level Estimated
Sun 08:48:00 PM 43.4498 125.8101 67° East  Level Estimated
Sun 08:49:00 PM 43.4941 125.9543 67° East  Level Estimated
Sun 08:50:00 PM 43.5381 126.0988 67° East  Level Estimated
Sun 08:51:00 PM 43.5820 126.2434 67° East  Level Estimated
Sun 08:52:00 PM 43.6257 126.3883 67° East  Level Estimated
Sun 08:53:00 PM 43.6692 126.5334 67° East  Level Estimated
Sun 08:54:00 PM 43.7125 126.6787 68° East  Level Estimated
Sun 08:55:00 PM 43.7557 126.8242 68° East  Level Estimated
Sun 08:56:00 PM 43.7986 126.9699 68° East  Level Estimated
Sun 08:57:00 PM 43.8414 127.1158 68° East  Level Estimated
Sun 08:58:00 PM 43.8840 127.2619 68° East  Level Estimated
Sun 08:59:00 PM 43.9264 127.4083 68° East  Level Estimated
Sun 09:00:00 PM 43.9686 127.5548 68° East  Level Estimated
Sun 09:01:00 PM 44.0107 127.7016 68° East  Level Estimated
Sun 09:02:00 PM 44.0525 127.8485 68° East  Level Estimated
Sun 09:03:00 PM 44.0941 127.9957 68° East  Level Estimated
Sun 09:04:00 PM 44.1356 128.1431 69° East  Level Estimated
Sun 09:05:00 PM 44.1769 128.2906 69° East  Level Estimated
Sun 09:06:00 PM 44.2179 128.4384 69° East  Level Estimated
Sun 09:07:00 PM 44.2588 128.5864 69° East  Level Estimated
Sun 09:08:00 PM 44.2995 128.7346 69° East  Level Estimated
Sun 09:09:00 PM 44.3400 128.8830 69° East  Level Estimated
Sun 09:10:00 PM 44.3804 129.0316 69° East  Level Estimated
Sun 09:11:00 PM 44.4205 129.1804 69° East  Level Estimated
Sun 09:12:00 PM 44.4604 129.3295 69° East  Level Estimated
Sun 09:13:00 PM 44.5001 129.4787 69° East  Level Estimated
Sun 09:14:00 PM 44.5241 129.5690 70° East  Level Estimated
Sun 09:15:00 PM 44.5241 129.5690 35° Northeast  Level Estimated
Sun 09:16:00 PM 44.5241 129.5690 35° Northeast  Level Estimated
Sun 09:17:00 PM 44.5241 129.5690 35° Northeast  Level Estimated
Sun 09:18:00 PM 44.5241 129.5690 35° Northeast  Level Estimated
Sun 09:19:00 PM 44.5241 129.5690 35° Northeast  Level Estimated
Sun 09:20:00 PM 44.5241 129.5690 35° Northeast  Level Estimated
Sun 09:21:00 PM 44.5241 129.5690 35° Northeast  Level Estimated
Sun 09:22:00 PM 44.5241 129.5690 35° Northeast  Level Estimated
Sun 09:23:00 PM 44.5241 129.5690 35° Northeast  Level Estimated
Sun 09:24:00 PM 44.5241 129.5690 35° Northeast  Level Estimated
Sun 09:25:00 PM 44.5241 129.5690 35° Northeast  Level Estimated

Login

Don't have an account? Register now (free) for customized features, flight alerts, and more!